Time;durP1;ratioP1;P1;durP2;ratioP2;P2;SDS_P1;SDS_P2;PMS_P1;PMS_P2;Temp;Humidity;BMP_temperature;BMP_pressure;BME280_temperature;BME280_humidity;BME280_pressure;Samples;Min_cycle;Max_cycle;Signal;HPM_P1;HPM_P2
2023/03/24 00:01:01;;;;;;;8.18;4.75;;;;;;;11.26;100.00;99686.78;4911948;29;20200;-82
2023/03/24 00:03:28;;;;;;;11.38;4.72;;;;;;;11.30;100.00;99686.72;4910980;29;20493;-83
2023/03/24 00:05:57;;;;;;;10.82;4.65;;;;;;;11.27;100.00;99676.38;4913389;29;20123;-82
2023/03/24 00:08:23;;;;;;;9.50;4.55;;;;;;;11.28;100.00;99669.53;4924520;29;20043;-82
2023/03/24 00:10:49;;;;;;;8.88;4.35;;;;;;;11.25;100.00;99671.16;4927496;29;20036;-83
2023/03/24 00:13:15;;;;;;;12.77;4.93;;;;;;;11.25;100.00;99661.97;4912760;29;20042;-83
2023/03/24 00:15:41;;;;;;;8.32;3.90;;;;;;;11.27;100.00;99651.16;4928955;29;20027;-82
2023/03/24 00:18:09;;;;;;;6.78;3.38;;;;;;;11.29;100.00;99657.16;4928701;29;20031;-82
2023/03/24 00:20:34;;;;;;;10.13;5.03;;;;;;;11.28;100.00;99650.75;4908355;29;20040;-82
2023/03/24 00:23:00;;;;;;;12.95;5.50;;;;;;;11.27;100.00;99645.56;4917378;29;20115;-82
2023/03/24 00:25:32;;;;;;;11.48;5.30;;;;;;;11.30;100.00;99636.31;4929275;29;20028;-82
2023/03/24 00:27:58;;;;;;;7.03;4.07;;;;;;;11.31;100.00;99637.91;4910442;29;20494;-81
2023/03/24 00:30:24;;;;;;;6.88;4.68;;;;;;;11.29;100.00;99641.13;4930140;29;20086;-81
2023/03/24 00:32:50;;;;;;;9.40;4.72;;;;;;;11.30;100.00;99631.53;4931042;29;20370;-81
2023/03/24 00:35:16;;;;;;;9.18;3.97;;;;;;;11.28;100.00;99633.13;4917201;29;20039;-81
2023/03/24 00:37:43;;;;;;;9.93;4.38;;;;;;;11.27;100.00;99629.53;4918598;29;20134;-81
2023/03/24 00:40:12;;;;;;;7.03;3.88;;;;;;;11.25;100.00;99628.38;4932633;29;20028;-81
2023/03/24 00:42:44;;;;;;;10.45;4.90;;;;;;;11.28;100.00;99611.53;4938296;29;20027;-81
2023/03/24 00:45:11;;;;;;;10.68;3.92;;;;;;;11.34;100.00;99623.06;4914144;29;20084;-81
2023/03/24 00:47:36;;;;;;;5.57;3.25;;;;;;;11.32;100.00;99622.69;4916927;29;20558;-81
2023/03/24 00:50:14;;;;;;;6.28;3.70;;;;;;;11.31;100.00;99607.91;4930543;29;20044;-81
2023/03/24 00:52:42;;;;;;;8.60;4.47;;;;;;;11.33;100.00;99596.28;4909591;29;20541;-81
2023/03/24 00:55:12;;;;;;;6.68;4.38;;;;;;;11.28;100.00;99589.13;4933937;29;20038;-81
2023/03/24 00:57:39;;;;;;;10.27;4.45;;;;;;;11.29;100.00;99581.50;4914195;29;20074;-81
2023/03/24 01:00:15;;;;;;;5.65;3.55;;;;;;;11.26;100.00;99588.75;4912384;29;20031;-81
2023/03/24 01:02:40;;;;;;;9.25;3.75;;;;;;;11.31;100.00;99576.28;4933018;29;20037;-81
2023/03/24 01:05:07;;;;;;;6.45;3.85;;;;;;;11.36;100.00;99579.44;4930251;29;20027;-81
2023/03/24 01:07:33;;;;;;;7.35;3.30;;;;;;;11.38;100.00;99567.81;4922992;29;20114;-81
2023/03/24 01:09:59;;;;;;;7.78;3.47;;;;;;;11.37;100.00;99560.63;4907601;29;20144;-81
2023/03/24 01:12:30;;;;;;;6.40;3.88;;;;;;;11.37;100.00;99560.63;4923196;29;20051;-80
2023/03/24 01:15:01;;;;;;;10.25;4.18;;;;;;;11.30;100.00;99547.50;4924682;29;20576;-80
2023/03/24 01:17:28;;;;;;;8.25;4.03;;;;;;;11.34;100.00;99537.03;4922124;29;20130;-80
2023/03/24 01:19:54;;;;;;;5.85;3.22;;;;;;;11.25;100.00;99539.53;4922158;29;20516;-81
2023/03/24 01:22:20;;;;;;;12.68;3.60;;;;;;;11.33;100.00;99541.03;4921881;29;20087;-81
2023/03/24 01:24:47;;;;;;;7.07;3.90;;;;;;;11.33;100.00;99545.84;4924180;29;24042;-81
2023/03/24 01:27:12;;;;;;;6.30;3.60;;;;;;;11.36;100.00;99539.41;4906121;29;20028;-81
2023/03/24 01:29:39;;;;;;;9.82;3.60;;;;;;;11.26;100.00;99517.91;4914205;29;20039;-81
2023/03/24 01:32:05;;;;;;;6.13;3.60;;;;;;;11.33;100.00;99541.03;4914424;29;20490;-81
2023/03/24 01:34:30;;;;;;;8.57;4.38;;;;;;;11.36;100.00;99539.41;4916356;29;20551;-81
2023/03/24 01:36:56;;;;;;;8.38;3.92;;;;;;;11.37;100.00;99533.41;4908840;29;20127;-81
2023/03/24 01:39:21;;;;;;;13.60;5.50;;;;;;;11.32;100.00;99513.44;4909479;29;20035;-81
2023/03/24 01:41:47;;;;;;;8.75;4.15;;;;;;;11.32;100.00;99505.03;4923252;29;20042;-81
2023/03/24 01:44:23;;;;;;;6.57;3.33;;;;;;;11.42;100.00;99506.94;4927408;29;20024;-81
2023/03/24 01:46:49;;;;;;;7.43;3.42;;;;;;;11.46;100.00;99499.28;4918778;29;20061;-81
2023/03/24 01:49:15;;;;;;;9.30;3.55;;;;;;;11.43;100.00;99500.13;4922227;29;20506;-81
2023/03/24 01:51:47;;;;;;;6.63;3.97;;;;;;;11.45;100.00;99503.31;4912643;29;20127;-82
2023/03/24 01:54:21;;;;;;;7.35;3.95;;;;;;;11.49;100.00;99503.25;4921309;29;20024;-81
2023/03/24 01:57:09;;;;;;;10.60;3.67;;;;;;;11.50;100.00;99494.44;4900058;29;20368;-82
2023/03/24 01:59:40;;;;;;;4.85;3.55;;;;;;;11.52;100.00;99486.41;4924713;29;20766;-81
2023/03/24 02:02:07;;;;;;;9.85;3.80;;;;;;;11.52;100.00;99474.41;4899725;29;20138;-81
2023/03/24 02:04:38;;;;;;;8.00;4.30;;;;;;;11.58;100.00;99483.94;4919781;29;20023;-81
2023/03/24 02:07:12;;;;;;;6.38;3.90;;;;;;;11.60;100.00;99482.31;4916803;29;20125;-81
2023/03/24 02:09:38;;;;;;;4.93;3.22;;;;;;;11.57;100.00;99488.75;4908078;29;20259;-81
2023/03/24 02:12:03;;;;;;;4.65;3.38;;;;;;;11.58;100.00;99473.53;4925022;29;20663;-81
2023/03/24 02:14:29;;;;;;;6.57;3.30;;;;;;;11.62;100.00;99467.09;4903323;29;20478;-81
2023/03/24 02:17:13;;;;;;;8.13;4.53;;;;;;;11.62;100.00;99473.47;4905455;29;20095;-81
2023/03/24 02:20:00;;;;;;;6.80;4.00;;;;;;;11.57;100.00;99465.53;4919340;29;20531;-80
2023/03/24 02:22:38;;;;;;;6.18;3.58;;;;;;;11.56;100.00;99461.94;4921537;29;20164;-80
2023/03/24 02:25:13;;;;;;;5.57;4.10;;;;;;;11.57;100.00;99457.13;4913333;29;20040;-81
2023/03/24 02:27:50;;;;;;;5.38;4.10;;;;;;;11.58;100.00;99450.31;4906977;29;20045;-81
2023/03/24 02:30:19;;;;;;;7.65;4.10;;;;;;;11.56;100.00;99447.91;4920554;29;20036;-80
2023/03/24 02:33:00;;;;;;;7.15;5.13;;;;;;;11.58;100.00;99451.09;4920593;29;20637;-80
2023/03/24 02:35:35;;;;;;;7.45;3.70;;;;;;;11.51;100.00;99434.38;4924301;29;20094;-80
2023/03/24 02:38:28;;;;;;;5.82;3.38;;;;;;;11.55;100.00;99442.72;4917762;29;20043;-80
2023/03/24 02:41:17;;;;;;;5.43;3.75;;;;;;;11.54;100.00;99444.75;4904541;29;20028;-81
2023/03/24 02:44:00;;;;;;;7.45;3.95;;;;;;;11.56;100.00;99430.31;4918020;29;20527;-80
2023/03/24 02:46:45;;;;;;;6.28;3.92;;;;;;;11.50;100.00;99444.00;4925657;29;20039;-80
2023/03/24 02:49:41;;;;;;;9.25;4.70;;;;;;;11.53;100.00;99436.75;4916933;29;20079;-80
2023/03/24 02:52:29;;;;;;;5.78;3.83;;;;;;;11.53;100.00;99426.34;4920450;29;20171;-80
2023/03/24 02:55:20;;;;;;;8.32;3.75;;;;;;;11.59;100.00;99441.50;4917600;29;20026;-81
2023/03/24 02:57:48;;;;;;;6.88;3.33;;;;;;;11.57;100.00;99437.50;4916718;29;20039;-81
2023/03/24 03:00:32;;;;;;;6.30;4.10;;;;;;;11.59;100.00;99438.69;4922386;29;20032;-81
2023/03/24 03:03:07;;;;;;;4.18;3.63;;;;;;;11.57;100.00;99440.31;4920325;29;20101;-81
2023/03/24 03:05:38;;;;;;;5.03;4.00;;;;;;;11.60;100.00;99443.06;4923195;29;20032;-81
2023/03/24 03:08:08;;;;;;;7.55;3.60;;;;;;;11.62;100.00;99450.28;4922051;29;20062;-81
2023/03/24 03:10:38;;;;;;;3.88;3.15;;;;;;;11.63;100.00;99451.84;4926053;29;20505;-81
2023/03/24 03:13:10;;;;;;;5.00;3.22;;;;;;;11.61;100.00;99455.06;4920327;29;20046;-81
2023/03/24 03:15:41;;;;;;;6.53;3.10;;;;;;;11.66;100.00;99446.22;4928448;29;20031;-83
2023/03/24 03:18:14;;;;;;;8.00;3.42;;;;;;;11.66;100.00;99490.22;4924832;29;20847;-83
2023/03/24 03:20:51;;;;;;;6.28;3.13;;;;;;;11.67;100.00;99497.44;4909050;29;20031;-82
2023/03/24 03:23:36;;;;;;;4.28;3.55;;;;;;;11.64;100.00;99515.09;4903927;29;20245;-81
2023/03/24 03:26:06;;;;;;;4.72;3.25;;;;;;;11.64;100.00;99509.47;4905637;29;21747;-82
2023/03/24 03:28:40;;;;;;;6.75;3.05;;;;;;;11.68;100.00;99518.63;4911416;29;20067;-83
2023/03/24 03:31:09;;;;;;;7.07;3.00;;;;;;;11.66;100.00;99543.50;4929498;29;20127;-83
2023/03/24 03:33:42;;;;;;;6.22;2.88;;;;;;;11.54;100.00;99537.22;4928504;29;20031;-83
2023/03/24 03:36:19;;;;;;;;;;;;;;;11.58;100.00;99545.59;4925235;29;20090;-83
2023/03/24 03:38:53;;;;;;;4.53;1.75;;;;;;;11.49;100.00;99546.09;4923258;29;19915;-84
2023/03/24 03:41:19;;;;;;;3.58;1.65;;;;;;;11.23;100.00;99552.34;4923220;29;20032;-83
2023/03/24 03:43:47;;;;;;;3.65;1.55;;;;;;;11.34;100.00;99559.47;4927547;29;20118;-83
2023/03/24 03:46:14;;;;;;;1.98;1.60;;;;;;;11.25;100.00;99573.13;4927894;29;20047;-83
2023/03/24 03:48:40;;;;;;;6.60;1.70;;;;;;;11.35;100.00;99583.44;4920511;29;20043;-79
2023/03/24 03:51:07;;;;;;;4.75;1.98;;;;;;;11.32;100.00;99594.69;4922824;29;20036;-81
2023/03/24 03:53:59;;;;;;;7.85;2.60;;;;;;;11.08;100.00;99588.09;4908226;29;20429;-83
2023/03/24 03:56:30;;;;;;;6.95;1.85;;;;;;;11.04;100.00;99593.72;4906447;29;20082;-83
2023/03/24 03:58:57;;;;;;;5.10;1.83;;;;;;;11.01;100.00;99597.34;4905299;29;23039;-83
2023/03/24 04:01:26;;;;;;;4.57;1.48;;;;;;;10.95;100.00;99596.19;4911353;29;20034;-83
2023/03/24 04:04:06;;;;;;;7.30;2.13;;;;;;;10.97;100.00;99602.97;4923936;29;20028;-83
2023/03/24 04:06:49;;;;;;;6.32;1.67;;;;;;;11.02;100.00;99610.13;4909107;29;20059;-83
2023/03/24 04:09:14;;;;;;;3.08;1.40;;;;;;;10.89;100.00;99629.44;4930943;29;20035;-83
2023/03/24 04:11:47;;;;;;;4.60;1.80;;;;;;;10.90;100.00;99635.81;4922566;29;21661;-83
2023/03/24 04:14:28;;;;;;;10.27;2.55;;;;;;;10.89;100.00;99639.84;4919845;29;20565;-83
2023/03/24 04:17:25;;;;;;;6.97;1.73;;;;;;;10.89;100.00;99653.84;4927755;29;20031;-84
2023/03/24 04:20:13;;;;;;;8.77;1.67;;;;;;;10.91;100.00;99654.22;4921623;29;20684;-83
2023/03/24 04:22:52;;;;;;;7.75;3.25;;;;;;;10.82;100.00;99662.28;4921626;29;20039;-83
2023/03/24 04:25:55;;;;;;;5.28;1.83;;;;;;;10.67;100.00;99672.78;4922441;29;20027;-83
2023/03/24 04:28:31;;;;;;;3.70;1.70;;;;;;;10.70;100.00;99683.13;4932428;29;20375;-83
2023/03/24 04:31:06;;;;;;;11.55;2.30;;;;;;;10.61;100.00;99680.00;4931416;29;20494;-83
2023/03/24 04:33:49;;;;;;;10.02;2.65;;;;;;;10.73;100.00;99677.53;4912551;29;20024;-83
2023/03/24 04:36:30;;;;;;;5.05;1.90;;;;;;;10.64;100.00;99681.97;4933183;29;20023;-83
2023/03/24 04:38:58;;;;;;;11.70;2.80;;;;;;;10.71;100.00;99688.34;4939290;29;20470;-83
2023/03/24 04:41:28;;;;;;;8.20;2.63;;;;;;;10.50;100.00;99685.66;4927773;29;20106;-83
2023/03/24 04:43:56;;;;;;;5.45;2.10;;;;;;;10.53;100.00;99693.22;4917221;29;20038;-83
2023/03/24 04:46:22;;;;;;;6.88;1.88;;;;;;;10.33;100.00;99690.91;4926273;29;20471;-83
2023/03/24 04:48:47;;;;;;;5.00;2.33;;;;;;;10.40;100.00;99692.09;4916444;29;20403;-83
2023/03/24 04:51:14;;;;;;;11.93;2.53;;;;;;;10.37;100.00;99688.06;4914407;29;20146;-83
2023/03/24 04:53:40;;;;;;;8.73;2.67;;;;;;;10.32;100.00;99703.28;4909653;29;20605;-83
2023/03/24 04:56:24;;;;;;;4.20;2.03;;;;;;;10.29;100.00;99720.88;4931581;29;20034;-83
2023/03/24 04:58:50;;;;;;;6.00;2.10;;;;;;;10.35;100.00;99719.25;4925510;29;20023;-83
2023/03/24 05:01:16;;;;;;;6.75;2.22;;;;;;;10.40;100.00;99708.88;4925131;29;20030;-83
2023/03/24 05:03:44;;;;;;;6.60;2.40;;;;;;;10.29;100.00;99720.88;4910356;29;20089;-83
2023/03/24 05:06:11;;;;;;;13.77;2.92;;;;;;;10.09;100.00;99733.69;4905895;29;20039;-83
2023/03/24 05:08:37;;;;;;;15.05;3.10;;;;;;;10.16;100.00;99734.47;4907216;29;20682;-83
2023/03/24 05:11:02;;;;;;;5.53;1.88;;;;;;;10.23;100.00;99741.25;4908839;29;20119;-84
2023/03/24 05:13:27;;;;;;;9.77;2.22;;;;;;;10.32;100.00;99731.25;4918551;29;20039;-84
2023/03/24 05:15:53;;;;;;;10.00;2.47;;;;;;;10.08;100.00;99737.69;4905631;29;20521;-82
2023/03/24 05:18:19;;;;;;;10.70;2.65;;;;;;;10.05;100.00;99738.47;4914275;29;20565;-82
2023/03/24 05:20:44;;;;;;;10.20;2.05;;;;;;;10.08;100.00;99737.69;4908134;29;20038;-83
2023/03/24 05:23:10;;;;;;;8.40;2.75;;;;;;;9.95;100.00;99726.94;4922248;29;20032;-82
2023/03/24 05:25:35;;;;;;;8.77;1.77;;;;;;;10.08;100.00;99740.50;4910840;29;20398;-83
2023/03/24 05:28:01;;;;;;;10.98;2.40;;;;;;;10.05;100.00;99744.88;4926363;29;20023;-83
2023/03/24 05:30:27;;;;;;;14.75;3.03;;;;;;;9.98;100.00;99745.69;4904235;29;20050;-83
2023/03/24 05:32:53;;;;;;;7.10;1.98;;;;;;;10.09;100.00;99756.84;4919577;29;20557;-83
2023/03/24 05:35:18;;;;;;;14.73;2.17;;;;;;;10.18;100.00;99759.22;4904247;29;20031;-83
2023/03/24 05:37:44;;;;;;;11.68;1.98;;;;;;;10.16;100.00;99759.63;4922423;29;20070;-83
2023/03/24 05:40:10;;;;;;;10.38;4.10;;;;;;;10.16;100.00;99770.00;4902517;29;20038;-82
2023/03/24 05:42:35;;;;;;;8.13;2.75;;;;;;;9.98;100.00;99768.03;4923615;29;20506;-83
2023/03/24 05:45:01;;;;;;;5.93;2.25;;;;;;;9.95;100.00;99774.44;4922469;29;20035;-83
2023/03/24 05:47:26;;;;;;;12.50;4.43;;;;;;;9.93;100.00;99776.84;4924995;29;20042;-83
2023/03/24 05:49:52;;;;;;;7.82;2.05;;;;;;;9.98;100.00;99779.22;4926977;29;20052;-82
2023/03/24 05:52:19;;;;;;;11.50;3.55;;;;;;;10.11;100.00;99793.59;4920603;29;20057;-83
2023/03/24 05:54:45;;;;;;;7.60;2.75;;;;;;;9.93;100.00;99788.03;4923439;29;20042;-83
2023/03/24 05:57:15;;;;;;;5.90;2.63;;;;;;;10.02;100.00;99801.59;4928920;29;20035;-83
2023/03/24 05:59:40;;;;;;;9.65;2.33;;;;;;;9.94;100.00;99800.78;4920746;29;20039;-83
2023/03/24 06:02:06;;;;;;;15.63;3.38;;;;;;;9.85;100.00;99803.19;4924224;29;20031;-80
2023/03/24 06:04:31;;;;;;;18.02;3.38;;;;;;;10.05;100.00;99819.56;4925352;29;20271;-81
2023/03/24 06:06:57;;;;;;;8.55;2.45;;;;;;;10.04;100.00;99817.97;4926322;29;20028;-82
2023/03/24 06:09:24;;;;;;;15.05;4.00;;;;;;;9.94;100.00;99816.78;4926412;29;20058;-81
2023/03/24 06:11:50;;;;;;;16.02;2.58;;;;;;;10.10;100.00;99819.16;4925455;29;20552;-81
2023/03/24 06:14:15;;;;;;;8.23;2.25;;;;;;;9.98;100.00;99817.56;4926032;29;20035;-81
2023/03/24 06:16:41;;;;;;;13.07;3.17;;;;;;;10.06;100.00;99832.34;4904752;29;20122;-81
2023/03/24 06:19:07;;;;;;;9.95;4.32;;;;;;;9.97;100.00;99822.38;4930193;29;20494;-81
2023/03/24 06:21:33;;;;;;;13.95;3.75;;;;;;;10.13;100.00;99832.34;4925480;29;20520;-80
2023/03/24 06:23:59;;;;;;;11.02;2.70;;;;;;;9.96;100.00;99831.94;4919822;29;20028;-82
2023/03/24 06:26:25;;;;;;;16.40;3.85;;;;;;;10.04;100.00;99829.94;4904233;29;20031;-82
2023/03/24 06:28:51;;;;;;;18.05;2.92;;;;;;;10.03;100.00;99833.13;4920789;29;20058;-82
2023/03/24 06:31:20;;;;;;;12.13;3.72;;;;;;;10.03;100.00;99833.94;4926338;29;20050;-83
2023/03/24 06:33:50;;;;;;;15.07;3.85;;;;;;;9.96;100.00;99823.56;4930033;29;20050;-79
2023/03/24 06:36:17;;;;;;;14.13;3.55;;;;;;;10.01;100.00;99835.53;4924373;29;20222;-80
2023/03/24 06:38:43;;;;;;;12.55;2.88;;;;;;;10.03;100.00;99838.72;4913903;29;20027;-80
2023/03/24 06:41:08;;;;;;;13.70;3.88;;;;;;;9.92;100.00;99831.13;4920165;29;20035;-80
2023/03/24 06:43:34;;;;;;;14.40;4.05;;;;;;;10.03;100.00;99835.94;4928163;29;20035;-80
2023/03/24 06:46:00;;;;;;;20.00;5.07;;;;;;;10.06;100.00;99854.72;4908456;29;20032;-80
2023/03/24 06:48:25;;;;;;;22.98;4.75;;;;;;;9.97;100.00;99847.53;4908464;29;20031;-80
2023/03/24 06:50:52;;;;;;;19.45;4.15;;;;;;;9.96;100.00;99843.13;4901199;29;20118;-80
2023/03/24 06:53:17;;;;;;;15.07;3.97;;;;;;;10.02;100.00;99851.13;4905757;29;20024;-81
2023/03/24 06:55:43;;;;;;;19.08;4.82;;;;;;;10.01;100.00;99861.47;4898296;29;20647;-80
2023/03/24 06:58:09;;;;;;;19.63;5.45;;;;;;;9.96;100.00;99862.69;4900058;29;20266;-80
2023/03/24 07:00:35;;;;;;;21.35;5.78;;;;;;;10.07;100.00;99864.69;4916129;29;20028;-81
2023/03/24 07:03:01;;;;;;;30.48;5.57;;;;;;;10.22;100.00;99871.06;4920945;29;20027;-81
2023/03/24 07:05:27;;;;;;;17.45;3.70;;;;;;;10.10;100.00;99875.09;4899841;29;20043;-81
2023/03/24 07:07:52;;;;;;;19.98;5.38;;;;;;;10.06;100.00;99875.09;4920541;29;20028;-83
2023/03/24 07:10:20;;;;;;;18.77;3.80;;;;;;;10.03;100.00;99875.06;4897470;29;20044;-81
2023/03/24 07:12:47;;;;;;;16.70;4.45;;;;;;;10.08;100.00;99883.88;4917149;29;20166;-80
2023/03/24 07:15:12;;;;;;;18.33;4.25;;;;;;;10.07;100.00;99887.06;4895556;29;20024;-78
2023/03/24 07:17:40;;;;;;;25.10;4.50;;;;;;;10.09;100.00;99890.25;4926067;29;20040;-78
2023/03/24 07:20:07;;;;;;;17.17;3.75;;;;;;;10.16;100.00;99901.44;4922510;29;20074;-78
2023/03/24 07:22:34;;;;;;;24.73;4.57;;;;;;;10.11;100.00;99897.03;4919334;29;20035;-79
2023/03/24 07:25:03;;;;;;;22.67;4.00;;;;;;;10.14;100.00;99903.81;4907131;29;20422;-81
2023/03/24 07:27:28;;;;;;;17.63;4.20;;;;;;;10.18;100.00;99908.25;4925343;29;20110;-82
2023/03/24 07:29:54;;;;;;;17.60;4.32;;;;;;;10.21;100.00;99909.44;4913692;29;20130;-81
2023/03/24 07:32:19;;;;;;;22.63;4.60;;;;;;;10.18;100.00;99927.00;4930789;29;20040;-82
2023/03/24 07:34:45;;;;;;;22.52;4.80;;;;;;;10.21;100.00;99908.66;4926580;29;20035;-81
2023/03/24 07:37:10;;;;;;;17.25;5.00;;;;;;;10.17;100.00;99919.81;4925334;29;20043;-81
2023/03/24 07:39:36;;;;;;;19.33;3.72;;;;;;;10.16;100.00;99912.63;4915206;29;20028;-80
2023/03/24 07:42:01;;;;;;;15.60;4.05;;;;;;;10.19;100.00;99923.03;4929662;29;20043;-80
2023/03/24 07:44:26;;;;;;;28.48;6.47;;;;;;;10.24;100.00;99919.81;4908059;29;20027;-80
2023/03/24 07:46:52;;;;;;;27.77;6.38;;;;;;;10.24;100.00;99925.41;4906235;29;20062;-80
2023/03/24 07:49:17;;;;;;;25.08;4.68;;;;;;;10.23;100.00;99928.63;4921251;29;20048;-80
2023/03/24 07:51:43;;;;;;;16.60;4.70;;;;;;;10.26;100.00;99917.41;4921805;29;20683;-80
2023/03/24 07:54:08;;;;;;;25.90;5.60;;;;;;;10.30;100.00;99923.06;4924985;29;20378;-80
2023/03/24 07:56:33;;;;;;;25.10;5.53;;;;;;;10.35;100.00;99920.66;4925203;29;20035;-80
2023/03/24 07:58:59;;;;;;;22.17;4.45;;;;;;;10.38;100.00;99927.44;4904926;29;20032;-80
2023/03/24 08:01:25;;;;;;;18.48;3.90;;;;;;;10.48;100.00;99934.25;4923936;29;20031;-80
2023/03/24 08:03:54;;;;;;;16.60;4.82;;;;;;;10.45;100.00;99938.63;4906638;29;20038;-80
2023/03/24 08:06:20;;;;;;;14.88;3.95;;;;;;;10.44;100.00;99941.84;4923570;29;20090;-79
2023/03/24 08:08:46;;;;;;;20.20;5.30;;;;;;;10.41;100.00;99934.25;4925886;29;20450;-80
2023/03/24 08:11:11;;;;;;;21.85;4.00;;;;;;;10.48;100.00;99934.25;4927171;29;20098;-80
2023/03/24 08:13:36;;;;;;;24.10;6.68;;;;;;;10.44;100.00;99941.84;4909470;29;20075;-80
2023/03/24 08:16:03;;;;;;;15.38;5.75;;;;;;;10.37;100.00;99943.44;4911866;29;20477;-80
2023/03/24 08:18:30;;;;;;;19.73;5.85;;;;;;;10.40;100.00;99944.63;4925418;29;20027;-80
2023/03/24 08:20:57;;;;;;;13.95;4.63;;;;;;;10.41;100.00;99939.84;4905726;29;20042;-80
2023/03/24 08:23:23;;;;;;;26.55;4.13;;;;;;;10.46;100.00;99947.84;4926812;29;20541;-78
2023/03/24 08:25:49;;;;;;;22.98;4.75;;;;;;;10.49;100.00;99958.22;4929387;29;20126;-78
2023/03/24 08:28:15;;;;;;;15.30;4.22;;;;;;;10.48;100.00;99951.84;4926162;29;20032;-79
2023/03/24 08:30:44;;;;;;;20.15;3.85;;;;;;;10.53;100.00;99971.00;4903182;29;20098;-85
2023/03/24 08:33:12;;;;;;;16.48;4.47;;;;;;;10.45;100.00;99955.41;4913176;29;20116;-85
2023/03/24 08:35:38;;;;;;;14.88;4.13;;;;;;;10.58;100.00;99961.41;4927566;29;20611;-85
2023/03/24 08:38:04;;;;;;;22.13;3.85;;;;;;;10.69;100.00;99958.59;4925445;29;20032;-83
2023/03/24 08:40:30;;;;;;;14.85;4.75;;;;;;;10.87;100.00;99978.97;4934872;29;20083;-84
2023/03/24 08:42:58;;;;;;;23.60;4.75;;;;;;;10.99;100.00;99992.56;4913836;29;20091;-84
2023/03/24 08:45:27;;;;;;;21.52;4.97;;;;;;;11.05;100.00;99976.16;4912472;29;20760;-85
2023/03/24 08:47:54;;;;;;;24.42;4.32;;;;;;;10.98;100.00;99979.78;4929643;29;20047;-85
2023/03/24 08:50:21;;;;;;;16.35;4.30;;;;;;;11.02;100.00;99965.75;4930848;29;20212;-84
2023/03/24 08:52:47;;;;;;;19.45;3.88;;;;;;;11.28;100.00;99975.72;4928878;29;20131;-85
2023/03/24 08:55:15;;;;;;;15.10;3.10;;;;;;;11.25;100.00;99987.72;4913350;29;20103;-85
2023/03/24 08:57:40;;;;;;;13.98;3.35;;;;;;;11.23;100.00;99992.13;4932621;29;20023;-84
2023/03/24 09:00:15;;;;;;;18.95;3.80;;;;;;;11.16;100.00;99984.53;4927343;29;20152;-85
2023/03/24 09:02:42;;;;;;;14.52;3.83;;;;;;;11.17;100.00;99986.94;4931614;29;20106;-84
2023/03/24 09:05:08;;;;;;;18.88;3.90;;;;;;;11.07;100.00;99990.56;4926665;29;20028;-84
2023/03/24 09:07:34;;;;;;;12.02;3.10;;;;;;;10.93;100.00;100001.78;4939913;29;20046;-84
2023/03/24 09:10:00;;;;;;;19.85;3.92;;;;;;;10.93;100.00;100010.19;4932806;29;20478;-84
2023/03/24 09:12:25;;;;;;;18.80;3.65;;;;;;;11.02;100.00;99996.56;4915392;29;20047;-83
2023/03/24 09:14:51;;;;;;;20.17;3.28;;;;;;;10.91;100.00;100012.59;4932433;29;20035;-84
2023/03/24 09:17:16;;;;;;;15.20;5.07;;;;;;;10.89;100.00;99995.38;4934326;29;20043;-84
2023/03/24 09:19:43;;;;;;;15.50;3.75;;;;;;;11.08;100.00;100010.97;4914792;29;20030;-84
2023/03/24 09:22:09;;;;;;;11.75;2.92;;;;;;;11.27;100.00;100013.31;4933644;29;20390;-84
2023/03/24 09:24:34;;;;;;;12.05;2.70;;;;;;;11.37;100.00;100012.50;4934835;29;20028;-84
2023/03/24 09:26:59;;;;;;;13.57;3.20;;;;;;;11.31;100.00;100018.91;4907425;29;20093;-84
2023/03/24 09:29:25;;;;;;;12.90;3.50;;;;;;;11.31;100.00;100021.72;4931629;29;20043;-84
2023/03/24 09:31:52;;;;;;;16.17;3.45;;;;;;;11.50;100.00;100026.06;4931333;29;20091;-84
2023/03/24 09:34:20;;;;;;;15.27;3.55;;;;;;;11.45;100.00;100024.50;4915834;29;20082;-84
2023/03/24 09:36:46;;;;;;;16.13;3.30;;;;;;;11.90;100.00;100032.34;4913608;29;20491;-83
2023/03/24 09:39:11;;;;;;;33.75;6.25;;;;;;;11.87;100.00;100022.72;4930361;29;20038;-82
2023/03/24 09:41:36;;;;;;;19.50;3.80;;;;;;;11.74;100.00;100015.97;4932533;29;20028;-84
2023/03/24 09:44:14;;;;;;;13.95;3.35;;;;;;;11.63;100.00;100029.22;4910611;29;20051;-82
2023/03/24 09:46:46;;;;;;;13.05;3.30;;;;;;;11.70;100.00;100049.63;4926921;29;20118;-82
2023/03/24 09:49:16;;;;;;;17.65;4.00;;;;;;;11.75;100.00;100025.97;4933116;29;20058;-82
2023/03/24 09:51:45;;;;;;;18.52;3.45;;;;;;;11.97;100.00;100037.91;4902330;29;20411;-82
2023/03/24 09:54:39;;;;;;;19.83;4.10;;;;;;;11.91;100.00;100037.56;4927351;29;20039;-82
2023/03/24 09:57:10;;;;;;;17.23;3.42;;;;;;;11.86;100.00;100035.13;4910420;29;20063;-82
2023/03/24 09:59:38;;;;;;;15.48;3.85;;;;;;;11.84;100.00;100034.75;4933139;29;20039;-82
2023/03/24 10:02:17;;;;;;;13.38;3.50;;;;;;;11.75;100.00;100048.41;4919691;29;20490;-83
2023/03/24 10:04:42;;;;;;;12.88;4.38;;;;;;;11.91;100.00;100051.59;4924364;29;20039;-82
2023/03/24 10:07:10;;;;;;;12.93;3.50;;;;;;;11.90;100.00;100054.78;4921418;29;20051;-82
2023/03/24 10:09:36;;;;;;;14.02;3.72;;;;;;;12.01;100.00;100049.91;4920333;29;20047;-82
2023/03/24 10:12:14;;;;;;;21.27;4.68;;;;;;;11.93;100.00;100059.56;4919912;29;20032;-83
2023/03/24 10:14:42;;;;;;;16.25;4.47;;;;;;;11.82;100.00;100045.56;4906580;29;20042;-82
2023/03/24 10:17:33;;;;;;;13.60;2.97;;;;;;;11.99;100.00;100058.75;4923457;29;20513;-82
2023/03/24 10:20:06;;;;;;;18.52;3.60;;;;;;;12.27;100.00;100050.59;4923950;29;20032;-83
2023/03/24 10:22:43;;;;;;;12.32;5.90;;;;;;;12.38;100.00;100040.91;4920939;29;20047;-83
2023/03/24 10:25:31;;;;;;;18.65;4.57;;;;;;;12.57;100.00;100047.19;4920747;29;20032;-83
2023/03/24 10:28:01;;;;;;;13.25;4.75;;;;;;;12.62;96.53;100046.75;4917954;29;20036;-82
2023/03/24 10:30:30;;;;;;;9.88;2.88;;;;;;;12.60;98.81;100049.16;4923028;29;20023;-82
2023/03/24 10:32:56;;;;;;;12.23;2.75;;;;;;;12.72;94.83;100057.09;4920356;29;20525;-82
2023/03/24 10:35:30;;;;;;;12.13;4.05;;;;;;;12.61;97.77;100053.59;4925015;29;20030;-82
2023/03/24 10:38:00;;;;;;;12.68;3.97;;;;;;;12.61;97.68;100054.38;4926675;29;20498;-82
2023/03/24 10:40:31;;;;;;;9.80;3.50;;;;;;;13.01;94.87;100040.81;4926111;29;20496;-82
2023/03/24 10:42:57;;;;;;;15.50;3.38;;;;;;;12.90;93.82;100050.53;4921863;29;20035;-83
2023/03/24 10:45:31;;;;;;;11.43;3.42;;;;;;;12.94;94.51;100045.69;4919157;29;20039;-82
2023/03/24 10:47:59;;;;;;;17.63;3.72;;;;;;;13.05;95.64;100046.41;4921224;29;20488;-83
2023/03/24 10:50:28;;;;;;;14.68;3.55;;;;;;;13.34;95.50;100057.41;4914108;29;20082;-83
2023/03/24 10:52:54;;;;;;;11.93;2.95;;;;;;;13.38;95.71;100036.47;4917058;29;20059;-82
2023/03/24 10:55:22;;;;;;;10.65;4.18;;;;;;;13.03;98.67;100054.47;4922229;29;20667;-82
2023/03/24 10:57:58;;;;;;;11.55;3.83;;;;;;;12.65;99.08;100065.59;4905617;29;20103;-83
2023/03/24 11:00:30;;;;;;;12.43;2.80;;;;;;;12.53;96.77;100066.88;4926231;29;20063;-82
2023/03/24 11:02:58;;;;;;;14.25;4.22;;;;;;;12.75;93.62;100078.72;4927015;29;20648;-82
2023/03/24 11:05:29;;;;;;;9.73;3.35;;;;;;;12.94;94.20;100056.94;4910402;29;20040;-82
2023/03/24 11:07:59;;;;;;;16.80;5.03;;;;;;;12.74;96.63;100059.50;4929290;29;20023;-82
2023/03/24 11:10:26;;;;;;;13.52;2.80;;;;;;;13.00;93.54;100069.31;4922714;29;20023;-82
2023/03/24 11:12:54;;;;;;;10.98;3.08;;;;;;;13.00;95.17;100058.09;4923576;29;20047;-82
2023/03/24 11:15:27;;;;;;;9.45;2.33;;;;;;;12.88;99.53;100072.63;4926306;29;20115;-82
2023/03/24 11:18:15;;;;;;;15.73;3.67;;;;;;;13.25;91.34;100073.94;4926075;29;20061;-82
2023/03/24 11:20:45;;;;;;;10.93;3.08;;;;;;;13.03;93.69;100071.31;4921591;29;20039;-82
2023/03/24 11:23:31;;;;;;;12.15;3.13;;;;;;;13.40;94.91;100066.97;4906600;29;20042;-82
2023/03/24 11:26:11;;;;;;;13.82;2.90;;;;;;;13.51;91.02;100073.28;4907709;29;20059;-82
2023/03/24 11:28:41;;;;;;;14.07;3.00;;;;;;;13.78;90.02;100078.22;4922789;29;20063;-82
2023/03/24 11:31:10;;;;;;;20.98;3.70;;;;;;;13.87;83.04;100084.16;4903532;29;20035;-82